Hundvaag 1 weather for Jul 2011
Updated 21.08.2011 20:22:23 Month no. 289
Obs.
Da.
Temp. Dew Point Precip. Wind
Speed
Wind gusts Cloud cover Press. Humidity Wind dir. Sunny OPT
01.07.2011 12,7 10,1 0,0 20,9 20,9 0 1017,9 84,0 270,0   55,0 %
02.07.2011 14,8 12,7 3,6 0,0 0,0 4 1016,6 87,0   1 75,0 %
03.07.2011 14,3 12,2 9,9 3,2 4,8 0 1014,2 87,0 247,5   60,0 %
04.07.2011 13,5 12,1 0,0 8,0 12,9 0 1016,9 91,0 270,0 1 62,5 %
05.07.2011 15,1 13,4 0,5 1,6 3,2 0 1018,3 90,0 270,0 1 70,0 %
06.07.2011 14,2 12,4 0,0 0,0 9,7 1 1014,2 89,0     70,0 %
07.07.2011 19,4 15,7 7,6 4,8 4,8 9 1010,8 79,0 157,5 1 87,5 %
08.07.2011 15,8 12,4 0,5 3,2 3,2 8 1011,5 80,0 45,0 1 90,0 %
09.07.2011 14,9 13,3 1,3 6,3 12,2 4 1008,5 90,0 180,0 1 75,0 %
10.07.2011 14,1 12,9 2,0 5,0 8,4 4 1010,5 93,0 225,0 1 75,0 %
11.07.2011 15,2 12,8 3,0 7,1 14,0 4 1016,3 86,0 270,0 1 75,0 %
12.07.2011 12,1 9,2 0,0 10,6 29,0 4 1019,0 83,0 0,0 1 70,0 %
13.07.2011 12,9 11,7 0,0 3,2 6,1 4 1017,6 92,0 45,0 1 77,5 %
14.07.2011 14,4 13,2 0,0 4,2 6,9 4 1017,3 93,0 45,0 1 75,0 %
15.07.2011 13,1 11,3 0,0 10,8 14,2 8 1010,2 89,0 22,5 1 82,5 %
16.07.2011 17,4 11,9 0,0 9,7 9,7 4 1007,5 70,0 135,0 1 75,0 %
17.07.2011 17,1 13,1 0,5 3,2 1,6 0 995,3 77,0 90,0 1 70,0 %
18.07.2011 16,5 11,8 0,0 8,0 8,0 7 995,6 74,0 67,5 1 82,5 %
19.07.2011 14,5 11,8 10,2 3,2 4,8 2 999,7 84,0 67,5   65,0 %
20.07.2011 14,9 13,1 4,6 9,7 9,7 2 1006,4 89,0 157,5   65,0 %
21.07.2011 14,1 11,6 0,0 4,8 4,8 1 1013,2 85,0 270,0 1 67,5 %
22.07.2011 13,7 11,6 0,0 4,8 4,8 0 1010,5 87,0 292,5 1 65,0 %
23.07.2011 16,3 14,7 0,0 4,8 4,8 0 1001,7 90,0 337,5 1 67,5 %
24.07.2011 16,3 15,3 0,0 0,0 0,0 0 995,9 94,0   1 70,0 %
25.07.2011 15,9 14,3 0,0 0,0 0,0 0 1005,4 90,0   1 70,0 %
26.07.2011 17,1 14,4 0,0 0,0 0,0 0 1013,5 84,0   1 70,0 %
27.07.2011 14,9 12,4 0,0 4,8 8,0 0 1022,0 85,0 292,5   65,0 %
28.07.2011 15,3 13,2 0,0 8,0 4,8 0 1023,0 87,0 270,0   65,0 %
29.07.2011 13,8 11,3 0,0 19,3 19,3 0 1020,7 85,0 315,0 1 55,0 %
30.07.2011 13,9 12,1 0,0 11,3 11,3 0 1017,9 89,0 270,0 1 60,0 %
31.07.2011 14,3 12,8 0,0 3,2 3,2 0 1016,6 91,0 270,0 1 67,5 %
Avrg/Sum 14,9 12,6 43,7 5,9 7,9 2,3 1011,8 86,3 187,8 24 70,3 %